Time;durP1;ratioP1;P1;durP2;ratioP2;P2;SDS_P1;SDS_P2;PMS_P1;PMS_P2;Temp;Humidity;BMP_temperature;BMP_pressure;BME280_temperature;BME280_humidity;BME280_pressure;Samples;Min_cycle;Max_cycle;Signal;HPM_P1;HPM_P2
2021/12/24 00:01:55;;;;;;;36.75;22.90;;;;;;;4.32;83.40;99062.38;5055259;28;20049;-59
2021/12/24 00:04:32;;;;;;;34.08;21.80;;;;;;;4.33;82.87;99061.53;5056484;28;20500;-58
2021/12/24 00:07:06;;;;;;;36.65;24.58;;;;;;;4.33;82.70;99055.53;5054715;28;20049;-59
2021/12/24 00:09:43;;;;;;;39.15;23.67;;;;;;;4.34;82.97;99063.28;5038728;28;20049;-58
2021/12/24 00:12:18;;;;;;;37.40;22.95;;;;;;;4.34;82.95;99058.16;5038412;28;20131;-58
2021/12/24 00:15:00;;;;;;;35.97;22.92;;;;;;;4.35;83.10;99049.63;5056507;28;20037;-59
2021/12/24 00:17:36;;;;;;;37.33;23.05;;;;;;;4.36;83.62;99045.34;5055305;28;20049;-59
2021/12/24 00:37:20;;;;;;;36.28;23.90;;;;;;;4.39;83.39;99019.78;5055941;28;20079;-59
2021/12/24 00:42:43;;;;;;;41.03;23.98;;;;;;;4.41;83.57;99012.97;5055412;28;20090;-58
2021/12/24 00:45:18;;;;;;;36.13;22.77;;;;;;;4.42;84.04;99007.88;5055940;28;20032;-58
2021/12/24 00:47:56;;;;;;;40.92;23.67;;;;;;;4.45;83.51;99016.47;5071855;28;20041;-58
2021/12/24 00:56:29;;;;;;;35.30;23.10;;;;;;;4.46;83.19;99002.81;5054252;28;20037;-58
2021/12/24 00:59:14;;;;;;;35.30;22.80;;;;;;;4.47;83.63;98999.44;5054519;28;20041;-58
2021/12/24 01:01:54;;;;;;;34.47;21.33;;;;;;;4.47;83.42;98997.72;5055298;28;20381;-58
2021/12/24 01:04:25;;;;;;;35.25;22.90;;;;;;;4.47;83.36;98997.72;5054553;28;20041;-58
2021/12/24 01:07:04;;;;;;;34.55;22.20;;;;;;;4.47;83.65;98996.88;5038140;28;20041;-58
2021/12/24 01:09:43;;;;;;;37.03;22.02;;;;;;;4.47;83.63;98999.44;5055389;28;20037;-60
2021/12/24 01:12:20;;;;;;;33.95;21.63;;;;;;;4.49;83.39;99000.34;5054218;28;20561;-58
2021/12/24 01:14:51;;;;;;;41.05;23.23;;;;;;;4.50;83.11;99002.06;5053820;28;20033;-58
2021/12/24 01:17:52;;;;;;;34.35;21.52;;;;;;;4.51;83.19;98996.97;5054148;28;20029;-58
2021/12/24 01:20:39;;;;;;;34.47;21.98;;;;;;;4.52;83.87;99006.41;5053257;28;20087;-59
2021/12/24 01:26:00;;;;;;;37.45;22.42;;;;;;;4.53;83.71;99003.00;5055253;28;20033;-58
2021/12/24 01:42:42;;;;;;;37.35;21.80;;;;;;;4.55;83.94;98980.81;5055101;28;20476;-58
2021/12/24 01:45:32;;;;;;;36.47;20.02;;;;;;;4.57;84.48;98974.03;5054567;28;20102;-59
2021/12/24 01:48:10;;;;;;;32.95;20.92;;;;;;;4.60;84.15;98980.03;5037137;28;20400;-58
2021/12/24 01:50:50;;;;;;;33.47;19.92;;;;;;;4.60;83.64;98986.03;5053745;28;20037;-58
2021/12/24 01:53:22;;;;;;;35.05;18.98;;;;;;;4.61;83.94;98984.34;5053405;28;20044;-58
2021/12/24 01:55:57;;;;;;;34.25;19.33;;;;;;;4.61;83.85;98985.22;5036521;28;20549;-59
2021/12/24 01:58:31;;;;;;;32.92;19.40;;;;;;;4.63;83.73;98991.25;5053055;28;20041;-58
2021/12/24 02:01:08;;;;;;;38.55;19.67;;;;;;;4.64;83.47;98986.97;5053258;28;20484;-58
2021/12/24 02:03:42;;;;;;;36.50;17.38;;;;;;;4.63;83.64;98998.97;5053218;28;20041;-59
2021/12/24 02:06:22;;;;;;;30.17;17.60;;;;;;;4.62;83.68;98996.34;5069318;28;20033;-59
2021/12/24 02:08:58;;;;;;;34.38;17.85;;;;;;;4.63;83.54;99001.53;5054406;28;20037;-59
2021/12/24 02:11:38;;;;;;;32.50;16.85;;;;;;;4.64;83.83;98998.13;5053416;28;20049;-58
2021/12/24 02:14:24;;;;;;;30.95;18.02;;;;;;;4.64;83.70;98990.44;5054251;28;20045;-59
2021/12/24 02:28:38;;;;;;;30.00;17.33;;;;;;;4.59;83.44;98998.84;5023435;28;20458;-58
2021/12/24 02:31:29;;;;;;;29.00;16.80;;;;;;;4.58;83.14;99000.53;5053571;28;20037;-59
2021/12/24 02:34:05;;;;;;;24.17;13.85;;;;;;;4.59;83.30;98994.56;5069353;28;20171;-58
2021/12/24 02:36:42;;;;;;;27.25;16.60;;;;;;;4.57;83.79;98992.00;5053888;28;20086;-59
2021/12/24 02:39:16;;;;;;;24.90;14.43;;;;;;;4.59;83.94;98991.16;5053803;28;20040;-58
2021/12/24 02:41:55;;;;;;;26.02;15.55;;;;;;;4.59;83.81;98980.91;5053664;28;20029;-59
2021/12/24 02:44:31;;;;;;;31.58;15.48;;;;;;;4.61;83.87;98980.09;5053972;28;20032;-58
2021/12/24 02:55:19;;;;;;;27.65;14.55;;;;;;;4.63;83.64;98972.41;5053684;28;20102;-58
2021/12/24 02:57:59;;;;;;;30.33;16.50;;;;;;;4.63;83.81;98972.41;5053516;28;20045;-58
2021/12/24 03:00:30;;;;;;;25.92;15.38;;;;;;;4.63;83.76;98967.28;5053412;28;20036;-59
2021/12/24 03:03:10;;;;;;;22.75;14.38;;;;;;;4.64;84.06;98969.00;5052045;28;20052;-59
2021/12/24 03:05:44;;;;;;;25.98;14.70;;;;;;;4.64;84.03;98975.03;5053319;28;20048;-58
2021/12/24 03:08:17;;;;;;;25.45;14.70;;;;;;;4.64;83.78;98969.91;5052542;28;20099;-58
2021/12/24 03:10:55;;;;;;;30.67;15.30;;;;;;;4.66;83.83;98965.66;5053387;28;20099;-58
2021/12/24 03:13:31;;;;;;;27.95;14.68;;;;;;;4.66;83.90;98972.47;5069695;28;20439;-59
2021/12/24 03:16:05;;;;;;;28.17;15.02;;;;;;;4.66;84.13;98975.06;5053739;28;20048;-58
2021/12/24 03:18:45;;;;;;;24.40;13.65;;;;;;;4.67;83.80;98974.22;5052052;28;20037;-58
2021/12/24 03:22:13;;;;;;;23.50;15.38;;;;;;;4.65;84.17;98979.34;5053546;28;20041;-59
2021/12/24 03:26:58;;;;;;;27.13;14.77;;;;;;;4.66;84.15;98972.47;5053607;28;20083;-58
2021/12/24 03:29:38;;;;;;;30.45;17.88;;;;;;;4.66;83.61;98968.22;5051837;28;20048;-58
2021/12/24 03:32:09;;;;;;;30.63;16.95;;;;;;;4.67;83.78;98969.94;5052418;28;20029;-58
2021/12/24 03:34:41;;;;;;;27.67;15.65;;;;;;;4.70;84.40;98966.59;5035188;28;20037;-58
2021/12/24 03:37:11;;;;;;;27.38;13.90;;;;;;;4.69;84.20;98962.28;5053102;28;20041;-58
2021/12/24 03:39:43;;;;;;;25.63;15.55;;;;;;;4.69;84.00;98960.56;5035320;28;20459;-59
2021/12/24 03:42:16;;;;;;;;;;;;;;;4.70;83.73;98961.47;5052615;28;20033;-59
2021/12/24 03:44:56;;;;;;;34.13;16.90;;;;;;;4.70;84.23;98954.63;5034902;28;20364;-58
2021/12/24 03:47:34;;;;;;;30.67;16.05;;;;;;;4.71;84.36;98964.06;5034959;28;20124;-58
2021/12/24 03:50:14;;;;;;;30.10;15.85;;;;;;;4.72;83.97;98962.38;5051910;28;20114;-59
2021/12/24 03:55:35;;;;;;;33.10;15.65;;;;;;;4.73;84.39;98953.84;5052958;28;20127;-58
2021/12/24 03:58:15;;;;;;;26.67;16.45;;;;;;;4.73;84.26;98949.56;5035769;28;20060;-58
2021/12/24 04:00:52;;;;;;;25.95;15.15;;;;;;;4.75;84.47;98952.13;5055529;28;20037;-58
2021/12/24 04:03:34;;;;;;;28.48;17.48;;;;;;;4.77;84.08;98954.75;5056636;28;20053;-58
2021/12/24 04:06:05;;;;;;;27.33;16.50;;;;;;;4.78;84.16;98961.63;5072123;28;20033;-58
2021/12/24 04:08:41;;;;;;;27.08;16.67;;;;;;;4.77;84.38;98953.03;5056402;28;20036;-58
2021/12/24 04:11:17;;;;;;;28.10;17.50;;;;;;;4.80;84.12;98965.09;5038493;28;20401;-58
2021/12/24 04:13:54;;;;;;;26.73;16.55;;;;;;;4.79;84.16;98958.22;5055184;28;20037;-58
2021/12/24 04:16:27;;;;;;;30.63;17.83;;;;;;;4.78;84.17;98962.47;5056577;28;20041;-58
2021/12/24 04:24:52;;;;;;;33.17;17.70;;;;;;;4.76;84.29;98953.88;5056484;28;20120;-59
2021/12/24 04:27:31;;;;;;;31.17;16.65;;;;;;;4.76;84.18;98947.88;5056447;28;20041;-59
2021/12/24 04:30:11;;;;;;;35.60;17.95;;;;;;;4.76;84.09;98955.59;5071652;28;20033;-58
2021/12/24 04:52:23;;;;;;;33.45;18.30;;;;;;;4.83;84.23;98940.34;5055584;28;20037;-58
2021/12/24 05:03:35;;;;;;;29.17;18.15;;;;;;;4.86;84.12;98944.69;5055367;28;20409;-58
2021/12/24 05:09:07;;;;;;;28.83;16.70;;;;;;;4.85;84.38;98946.41;5055398;28;20039;-58
2021/12/24 05:11:43;;;;;;;30.52;18.33;;;;;;;4.86;84.27;98943.00;5053670;28;20075;-58
2021/12/24 05:14:30;;;;;;;27.02;15.23;;;;;;;4.88;84.23;98948.16;5053967;28;20117;-59
2021/12/24 05:17:51;;;;;;;;;;;;;;;4.87;84.61;98938.72;5056092;28;20086;-59
2021/12/24 05:23:05;;;;;;;28.77;16.95;;;;;;;4.84;84.84;98942.09;5055404;28;20481;-59
2021/12/24 05:25:47;;;;;;;27.48;17.40;;;;;;;4.84;84.27;98951.47;5054999;28;20029;-59
2021/12/24 05:28:20;;;;;;;26.58;16.13;;;;;;;4.84;84.67;98954.03;5055031;28;20041;-59
2021/12/24 05:31:00;;;;;;;24.73;15.45;;;;;;;4.85;84.06;98953.22;5070395;28;20032;-59
2021/12/24 05:33:33;;;;;;;28.35;14.88;;;;;;;4.84;83.93;98962.63;5037495;28;20039;-59
2021/12/24 05:36:10;;;;;;;27.63;16.83;;;;;;;4.84;84.35;98960.06;5036912;28;20060;-59
2021/12/24 05:38:41;;;;;;;30.65;16.20;;;;;;;4.84;84.58;98967.75;5054726;28;20051;-59
2021/12/24 05:41:15;;;;;;;28.23;16.92;;;;;;;4.84;84.35;98960.06;5037151;28;20515;-59
2021/12/24 05:43:49;;;;;;;28.38;18.02;;;;;;;4.84;84.69;98962.63;5054633;28;20094;-59
2021/12/24 05:46:20;;;;;;;;;;;;;;;4.83;84.63;98966.03;5070728;28;20395;-59
2021/12/24 05:48:52;;;;;;;31.02;16.02;;;;;;;4.84;84.70;98966.88;5037058;28;20347;-59
2021/12/24 05:51:36;;;;;;;34.88;17.88;;;;;;;4.85;84.32;98973.75;5054584;28;20423;-59
2021/12/24 05:54:07;;;;;;;28.38;16.23;;;;;;;4.84;83.89;98972.91;5052931;28;20036;-59
2021/12/24 05:56:42;;;;;;;23.98;14.35;;;;;;;4.84;84.35;98974.59;5053855;28;20488;-59
2021/12/24 05:59:21;;;;;;;31.55;16.70;;;;;;;4.86;84.89;98970.34;5054244;28;20029;-59
2021/12/24 06:02:01;;;;;;;25.52;16.00;;;;;;;4.86;84.82;98960.97;5069512;28;20132;-59
2021/12/24 06:04:37;;;;;;;26.25;14.70;;;;;;;4.87;84.08;98961.81;5053066;28;20090;-59
2021/12/24 06:07:10;;;;;;;24.58;13.77;;;;;;;4.86;84.45;98960.97;5036357;28;20507;-59
2021/12/24 06:09:47;;;;;;;28.88;15.68;;;;;;;4.86;84.62;98962.66;5054437;28;20515;-59
2021/12/24 06:12:24;;;;;;;32.15;14.60;;;;;;;4.86;84.22;98965.22;5054200;28;20052;-59
2021/12/24 06:15:04;;;;;;;31.50;14.95;;;;;;;4.86;84.11;98965.22;5054081;28;20061;-59
2021/12/24 06:17:42;;;;;;;28.55;16.20;;;;;;;4.85;84.39;98954.09;5070133;28;20076;-59
2021/12/24 06:20:22;;;;;;;24.13;14.10;;;;;;;4.86;84.45;98944.69;5036057;28;20487;-59
2021/12/24 06:23:00;;;;;;;27.65;15.95;;;;;;;4.86;84.41;98952.38;5052089;28;20121;-59
2021/12/24 06:25:38;;;;;;;37.22;16.15;;;;;;;4.86;84.17;98950.69;5052640;28;20094;-59
2021/12/24 06:28:13;;;;;;;32.08;16.90;;;;;;;4.88;85.00;98943.91;5053929;28;20049;-59
2021/12/24 06:30:47;;;;;;;29.63;16.85;;;;;;;4.90;84.71;98955.91;5053728;28;20483;-59
2021/12/24 06:33:21;;;;;;;32.08;18.13;;;;;;;4.91;84.97;98952.47;5052664;28;20033;-59
2021/12/24 06:36:01;;;;;;;30.05;16.17;;;;;;;4.92;84.45;98961.91;5069182;28;20087;-59
2021/12/24 06:38:34;;;;;;;39.78;16.90;;;;;;;4.93;84.07;98964.53;5069504;28;20083;-59
2021/12/24 06:41:10;;;;;;;;;;;;;;;4.94;84.38;98967.94;5053288;28;20389;-59
2021/12/24 06:43:46;;;;;;;32.70;15.68;;;;;;;4.91;84.55;98963.63;5035761;28;19913;-59
2021/12/24 06:46:20;;;;;;;30.60;16.90;;;;;;;4.91;84.84;98962.75;5053288;28;20033;-59
2021/12/24 06:48:57;;;;;;;;;;;;;;;4.92;84.61;98960.22;5054013;28;20040;-59
2021/12/24 06:51:29;;;;;;;37.00;19.92;;;;;;;4.91;84.59;98944.78;5052456;28;20366;-59
2021/12/24 06:54:01;;;;;;;33.03;17.70;;;;;;;4.93;85.05;98953.38;5069419;28;20106;-59
2021/12/24 06:56:35;;;;;;;;;;;;;;;4.91;84.58;98940.53;5052795;28;20120;-59
2021/12/24 06:59:09;;;;;;;31.60;16.02;;;;;;;4.92;84.84;98960.22;5035739;28;19920;-59
2021/12/24 07:01:48;;;;;;;32.70;17.02;;;;;;;4.90;84.71;98950.78;5053431;28;20091;-59
2021/12/24 07:04:24;;;;;;;33.65;17.88;;;;;;;4.91;84.67;98953.34;5053424;28;20522;-59
2021/12/24 07:06:53;;;;;;;35.20;17.52;;;;;;;4.91;84.50;98952.47;5068830;28;20029;-59
2021/12/24 07:09:26;;;;;;;35.85;16.75;;;;;;;4.91;84.55;98961.06;5053222;28;20037;-59
2021/12/24 07:12:02;;;;;;;30.00;16.50;;;;;;;4.91;84.65;98965.31;5052334;28;20037;-59
2021/12/24 07:14:37;;;;;;;29.70;16.20;;;;;;;4.92;84.50;98967.94;5035760;28;20040;-59
2021/12/24 07:17:13;;;;;;;36.53;17.38;;;;;;;4.93;84.88;98971.34;5068946;28;20072;-59
2021/12/24 07:19:46;;;;;;;37.08;15.75;;;;;;;4.94;84.79;98973.97;5053264;28;20070;-59
2021/12/24 07:22:20;;;;;;;31.30;15.87;;;;;;;4.96;84.84;98971.41;5052645;28;20047;-59
2021/12/24 07:24:56;;;;;;;37.35;16.92;;;;;;;4.96;84.89;98977.44;5069128;28;20294;-59
2021/12/24 07:27:30;;;;;;;30.65;15.65;;;;;;;4.97;84.47;98975.72;5052250;28;20041;-59
2021/12/24 07:30:05;;;;;;;38.58;18.27;;;;;;;4.98;84.39;98974.91;5035283;28;20052;-59
2021/12/24 07:32:40;;;;;;;30.85;14.68;;;;;;;4.98;84.40;98972.31;5053193;28;20037;-59
2021/12/24 07:35:14;;;;;;;35.78;17.35;;;;;;;4.98;84.70;98970.59;5055635;28;20059;-59
2021/12/24 07:37:46;;;;;;;33.95;16.25;;;;;;;4.99;84.67;98972.34;5056069;28;20111;-59
2021/12/24 07:40:19;;;;;;;37.25;17.13;;;;;;;4.99;84.94;98971.50;5057007;28;20489;-59
2021/12/24 07:42:58;;;;;;;35.95;16.60;;;;;;;5.00;84.88;98970.66;5056970;28;20060;-59
2021/12/24 07:45:36;;;;;;;28.70;15.18;;;;;;;5.00;84.79;98963.81;5057079;28;20041;-59
2021/12/24 07:48:15;;;;;;;40.95;16.20;;;;;;;5.01;84.83;98965.53;5055883;28;20511;-59
2021/12/24 07:53:18;;;;;;;26.38;15.10;;;;;;;5.03;84.82;98965.59;5055762;28;20127;-59
2021/12/24 07:55:58;;;;;;;26.70;15.30;;;;;;;5.05;84.59;98968.19;5056750;28;20094;-59
2021/12/24 07:58:29;;;;;;;28.95;14.88;;;;;;;5.05;84.98;98975.88;5055740;28;20045;-59
2021/12/24 08:01:02;;;;;;;30.90;16.35;;;;;;;5.05;84.80;98970.75;5039399;28;20106;-59
2021/12/24 08:03:38;;;;;;;23.80;13.40;;;;;;;5.06;84.87;98965.63;5056693;28;20427;-59
2021/12/24 08:06:14;;;;;;;23.98;14.10;;;;;;;5.06;84.43;98972.50;5055570;28;20446;-59
2021/12/24 08:08:45;;;;;;;23.25;12.50;;;;;;;5.05;84.67;98971.63;5056925;28;20041;-59
2021/12/24 08:11:28;;;;;;;24.15;13.25;;;;;;;5.05;85.06;98969.06;5039232;28;20098;-59
2021/12/24 08:14:00;;;;;;;25.95;13.10;;;;;;;5.05;84.68;98970.75;5056592;28;20125;-59
2021/12/24 08:16:33;;;;;;;26.23;13.90;;;;;;;5.04;84.70;98964.75;5056880;28;20033;-59
2021/12/24 08:19:06;;;;;;;22.48;11.98;;;;;;;5.04;84.56;98964.75;5055167;28;20128;-59
2021/12/24 08:21:39;;;;;;;19.35;10.98;;;;;;;5.05;84.89;98966.50;5055456;28;20108;-59
2021/12/24 08:24:13;;;;;;;22.67;12.27;;;;;;;5.06;84.61;98969.91;5071590;28;20043;-59
2021/12/24 08:26:51;;;;;;;26.65;12.60;;;;;;;5.05;84.88;98963.94;5056115;28;20029;-59
2021/12/24 08:29:23;;;;;;;23.40;11.18;;;;;;;5.06;84.38;98967.34;5056581;28;20041;-59
2021/12/24 08:31:59;;;;;;;25.20;11.88;;;;;;;5.04;85.01;98964.75;5056136;28;20064;-59
2021/12/24 08:34:36;;;;;;;23.00;10.95;;;;;;;5.04;84.78;98962.19;5038516;28;20052;-59
2021/12/24 08:37:06;;;;;;;23.55;10.65;;;;;;;5.05;85.22;98960.47;5054839;28;20036;-59
2021/12/24 08:39:40;;;;;;;25.27;11.02;;;;;;;5.07;84.85;98958.81;5037659;28;20208;-59
2021/12/24 08:42:11;;;;;;;22.88;11.60;;;;;;;5.07;84.89;98951.09;5056519;28;20044;-59
2021/12/24 08:44:43;;;;;;;30.23;11.82;;;;;;;5.08;84.93;98952.84;5038024;28;20065;-59
2021/12/24 08:47:16;;;;;;;26.85;11.55;;;;;;;5.08;85.13;98957.97;5055408;28;20045;-59
2021/12/24 08:49:47;;;;;;;21.88;11.15;;;;;;;5.08;84.74;98940.84;5055717;28;20041;-59
2021/12/24 08:52:27;;;;;;;22.55;10.65;;;;;;;5.10;85.02;98938.34;5037690;28;20033;-59
2021/12/24 08:55:00;;;;;;;20.90;9.90;;;;;;;5.09;85.17;98928.91;5055709;28;20498;-59
2021/12/24 08:57:34;;;;;;;21.08;10.75;;;;;;;5.09;84.61;98937.44;5054485;28;20045;-59
2021/12/24 09:00:09;;;;;;;23.83;11.93;;;;;;;5.09;84.63;98940.03;5055605;28;20056;-59
2021/12/24 09:02:45;;;;;;;22.33;10.32;;;;;;;5.08;84.63;98940.84;5055649;28;20080;-59
2021/12/24 09:05:16;;;;;;;23.00;12.38;;;;;;;5.09;84.82;98932.31;5055744;28;20028;-59
2021/12/24 09:07:48;;;;;;;26.00;10.65;;;;;;;5.09;85.00;98942.59;5038244;28;20095;-59
2021/12/24 09:10:23;;;;;;;22.20;11.00;;;;;;;5.10;84.67;98944.31;5055420;28;20098;-59
2021/12/24 09:12:57;;;;;;;26.20;11.43;;;;;;;5.12;84.75;98941.81;5037735;28;20033;-59
2021/12/24 09:16:16;;;;;;;23.92;9.65;;;;;;;5.12;84.89;98941.81;5111496;27;20336;-59
2021/12/24 09:18:57;;;;;;;18.83;11.45;;;;;;;5.12;84.96;98946.94;5109778;28;20040;-59
2021/12/24 09:21:34;;;;;;;23.27;10.10;;;;;;;5.11;84.68;98940.91;5092877;28;20036;-60
2021/12/24 09:24:07;;;;;;;22.15;10.32;;;;;;;5.12;84.67;98949.50;5111305;28;20429;-59
2021/12/24 09:26:39;;;;;;;17.45;10.23;;;;;;;5.11;85.49;98940.06;5111367;28;20043;-59
2021/12/24 09:29:12;;;;;;;19.33;10.68;;;;;;;5.11;84.51;98938.34;5111237;28;20036;-59
2021/12/24 09:31:53;;;;;;;20.15;9.90;;;;;;;5.11;84.98;98945.22;5077367;28;20549;-59
2021/12/24 09:34:27;;;;;;;30.02;11.45;;;;;;;5.11;85.08;98948.63;5111228;28;20036;-59
2021/12/24 09:36:58;;;;;;;28.50;11.18;;;;;;;5.14;85.33;98955.53;5092717;28;20031;-59
2021/12/24 09:39:32;;;;;;;20.73;10.05;;;;;;;5.14;85.13;98947.81;5109663;28;20093;-59
2021/12/24 09:42:09;;;;;;;21.35;11.30;;;;;;;5.15;85.19;98942.72;5110884;28;20051;-59
2021/12/24 09:44:44;;;;;;;23.95;10.23;;;;;;;5.17;84.75;98948.78;5092842;28;20039;-59
2021/12/24 09:47:18;;;;;;;22.73;10.57;;;;;;;5.18;85.05;98942.78;5111134;28;20077;-59
2021/12/24 09:49:52;;;;;;;28.30;11.30;;;;;;;5.20;85.04;98941.97;5110970;28;20044;-59
2021/12/24 09:52:26;;;;;;;24.38;10.20;;;;;;;5.20;85.04;98939.41;5075548;28;20421;-59
2021/12/24 09:55:10;;;;;;;26.58;10.40;;;;;;;5.22;85.27;98942.81;5092545;28;20463;-59
2021/12/24 09:57:42;;;;;;;24.00;10.05;;;;;;;5.23;84.52;98942.00;5111347;28;20066;-59
2021/12/24 10:00:16;;;;;;;24.17;10.90;;;;;;;5.24;85.32;98936.03;5076457;28;20051;-59
2021/12/24 10:02:48;;;;;;;;;;;;;;;5.23;84.64;98929.16;5077534;28;20035;-59
2021/12/24 10:05:40;;;;;;;23.58;9.70;;;;;;;5.23;85.18;98924.00;5093298;28;19912;-59
2021/12/24 10:08:16;;;;;;;25.17;10.57;;;;;;;5.23;84.83;98940.31;5092256;28;20032;-59
2021/12/24 10:10:46;;;;;;;23.45;9.82;;;;;;;5.24;85.24;98930.88;5075941;28;20071;-59
2021/12/24 10:13:44;;;;;;;22.38;10.25;;;;;;;5.24;84.69;98934.34;5126233;28;20081;-59
2021/12/24 10:16:25;;;;;;;21.25;10.32;;;;;;;5.26;84.72;98937.81;5092131;28;20038;-59
2021/12/24 10:19:02;;;;;;;19.55;9.90;;;;;;;5.26;84.96;98930.09;5110285;28;20035;-59
2021/12/24 10:21:43;;;;;;;24.50;10.52;;;;;;;5.27;84.91;98930.94;5110296;28;20068;-60
2021/12/24 10:24:23;;;;;;;20.48;10.40;;;;;;;5.30;84.78;98938.72;5092280;28;20109;-59
2021/12/24 10:27:03;;;;;;;23.58;11.38;;;;;;;5.30;85.08;98946.44;5082470;28;20036;-59
2021/12/24 10:29:43;;;;;;;24.98;10.48;;;;;;;5.30;85.21;98936.16;5096938;28;20036;-59
2021/12/24 10:32:23;;;;;;;26.35;10.52;;;;;;;5.32;84.74;98937.06;5095313;28;20123;-59
2021/12/24 10:35:00;;;;;;;24.73;10.13;;;;;;;5.31;85.02;98936.16;5094837;28;20039;-60
2021/12/24 10:37:36;;;;;;;20.48;10.10;;;;;;;5.32;84.84;98927.63;5096661;28;20032;-59
2021/12/24 10:40:10;;;;;;;26.73;10.32;;;;;;;5.33;85.05;98936.22;5061390;28;20512;-59
2021/12/24 10:42:54;;;;;;;27.40;10.75;;;;;;;5.33;85.21;98926.78;5078476;28;20032;-60
2021/12/24 10:45:32;;;;;;;27.13;10.80;;;;;;;5.32;84.77;98922.50;5096751;28;20050;-59
2021/12/24 10:48:19;;;;;;;22.90;10.18;;;;;;;5.33;84.99;98925.94;5061821;28;20040;-59
2021/12/24 10:51:07;;;;;;;16.98;10.05;;;;;;;5.34;85.07;98922.53;5111880;28;20040;-59
2021/12/24 10:54:02;;;;;;;19.42;10.10;;;;;;;5.36;85.03;98914.84;5095866;28;20032;-60
2021/12/24 10:56:35;;;;;;;24.77;10.18;;;;;;;5.33;84.85;98906.25;5096019;28;20036;-59
2021/12/24 10:59:01;;;;;;;27.70;11.65;;;;;;;5.34;84.74;98909.69;5096009;28;20050;-59
2021/12/24 11:01:35;;;;;;;22.65;10.68;;;;;;;5.36;85.25;98910.59;5095813;28;20067;-59
2021/12/24 11:04:09;;;;;;;;;;;;;;;5.35;84.52;98901.16;5096523;28;20048;-59
2021/12/24 11:06:43;;;;;;;22.27;9.25;;;;;;;5.34;85.03;98894.28;5077800;28;19916;-59
2021/12/24 11:09:11;;;;;;;19.42;9.80;;;;;;;5.34;84.98;98900.28;5095803;28;20028;-60
2021/12/24 11:11:46;;;;;;;19.92;10.32;;;;;;;5.36;85.30;98899.44;5095650;28;20040;-63
2021/12/24 11:14:25;;;;;;;23.80;10.23;;;;;;;5.35;84.94;98903.72;5096229;28;20054;-59
2021/12/24 11:16:58;;;;;;;26.23;10.30;;;;;;;5.35;85.15;98893.44;5077847;28;20036;-59
2021/12/24 11:19:52;;;;;;;22.65;10.63;;;;;;;5.37;85.25;98890.88;5061180;28;20071;-59
2021/12/24 11:22:26;;;;;;;21.02;10.05;;;;;;;5.39;84.77;98900.34;5077327;28;20036;-59
2021/12/24 11:25:07;;;;;;;19.77;9.85;;;;;;;5.40;85.43;98906.38;5095612;28;20079;-59
2021/12/24 11:27:44;;;;;;;18.58;10.05;;;;;;;5.39;85.35;98897.78;5095395;28;20082;-59
2021/12/24 11:30:21;;;;;;;23.02;10.98;;;;;;;5.41;84.96;98895.25;5077362;28;20093;-59
2021/12/24 11:33:00;;;;;;;29.63;11.38;;;;;;;5.41;85.19;98885.81;5095215;28;20036;-59
2021/12/24 11:35:38;;;;;;;17.42;9.50;;;;;;;5.42;84.90;98885.00;5095332;28;20032;-59
2021/12/24 11:38:23;;;;;;;18.40;10.82;;;;;;;5.43;85.27;98875.59;5094157;28;20438;-60
2021/12/24 11:43:26;;;;;;;22.40;10.77;;;;;;;5.47;84.96;98873.09;5111313;27;20733;-59
2021/12/24 11:46:14;;;;;;;28.08;11.18;;;;;;;5.49;84.99;98875.69;5111422;28;20403;-59
2021/12/24 11:48:55;;;;;;;20.15;10.15;;;;;;;5.50;84.75;98877.41;5076364;28;20437;-60
2021/12/24 11:51:33;;;;;;;22.48;9.98;;;;;;;5.51;84.83;98878.31;5111352;28;20040;-59
2021/12/24 11:54:16;;;;;;;32.13;12.85;;;;;;;5.52;85.25;98880.88;5093426;28;20061;-59
2021/12/24 11:56:55;;;;;;;18.42;10.45;;;;;;;5.52;85.48;98880.88;5111365;28;20539;-59
2021/12/24 11:59:39;;;;;;;24.05;11.02;;;;;;;5.52;85.39;98874.91;5075957;28;20118;-59
2021/12/24 12:02:36;;;;;;;26.58;12.57;;;;;;;5.50;85.19;98880.00;5093826;28;20040;-60
2021/12/24 12:05:41;;;;;;;19.95;9.98;;;;;;;5.47;85.49;98878.25;5092765;28;20032;-59
2021/12/24 12:08:33;;;;;;;19.83;11.48;;;;;;;5.46;85.08;98873.94;5111073;28;20055;-59
2021/12/24 12:11:17;;;;;;;17.20;10.13;;;;;;;5.46;85.23;98871.38;5110280;28;20035;-59
2021/12/24 12:14:07;;;;;;;24.25;11.18;;;;;;;5.47;85.01;98872.22;5093119;28;20123;-60
2021/12/24 12:16:41;;;;;;;22.73;10.82;;;;;;;5.46;84.94;98858.53;5126194;28;20039;-59
2021/12/24 12:19:27;;;;;;;23.50;11.55;;;;;;;5.49;85.12;98857.69;5126149;28;20036;-59
2021/12/24 12:22:15;;;;;;;24.55;10.25;;;;;;;5.51;85.31;98852.59;5111090;28;20067;-60
2021/12/24 12:28:00;;;;;;;23.48;11.40;;;;;;;5.49;85.25;98853.44;5110907;28;20053;-59
2021/12/24 12:30:39;;;;;;;20.10;10.35;;;;;;;5.49;85.35;98855.13;5092700;28;20114;-59
2021/12/24 12:33:11;;;;;;;17.00;9.23;;;;;;;5.46;85.33;98845.66;5109310;28;20433;-60
2021/12/24 12:36:04;;;;;;;20.55;11.15;;;;;;;5.46;84.96;98848.25;5092423;28;20032;-59
2021/12/24 12:38:38;;;;;;;18.95;10.95;;;;;;;5.45;85.52;98838.78;5110896;28;20106;-60
2021/12/24 12:41:22;;;;;;;18.35;9.98;;;;;;;5.45;85.43;98840.50;5074730;28;20052;-59
2021/12/24 12:43:50;;;;;;;;;;;;;;;5.44;85.31;98839.63;5126499;28;20043;-60
2021/12/24 12:46:27;;;;;;;19.60;10.20;;;;;;;5.43;85.11;98824.19;5075060;28;20000;-60
2021/12/24 12:48:57;;;;;;;18.45;9.75;;;;;;;5.44;85.06;98831.06;5092384;28;20036;-59
2021/12/24 12:51:49;;;;;;;20.55;9.80;;;;;;;5.45;85.23;98823.38;5110359;28;20103;-59
2021/12/24 12:54:26;;;;;;;29.65;10.02;;;;;;;5.45;84.82;98832.81;5089337;28;20054;-60
2021/12/24 12:57:20;;;;;;;26.25;10.48;;;;;;;5.44;85.28;98826.78;5112281;28;20024;-59
2021/12/24 13:00:08;;;;;;;19.98;10.25;;;;;;;5.45;85.15;98817.38;5095507;28;20040;-60
2021/12/24 13:02:52;;;;;;;26.60;10.60;;;;;;;5.45;85.16;98812.25;5096217;28;20143;-59
2021/12/24 13:05:20;;;;;;;23.02;9.98;;;;;;;5.43;85.33;98817.34;5096338;28;20059;-59
2021/12/24 13:10:17;;;;;;;20.25;10.60;;;;;;;5.44;85.60;98795.94;5132043;27;20424;-60
2021/12/24 13:12:43;;;;;;;21.30;10.35;;;;;;;5.45;85.26;98807.97;5131907;28;20118;-59
2021/12/24 13:15:16;;;;;;;17.20;8.70;;;;;;;5.45;85.43;98810.53;5096443;28;20035;-58
2021/12/24 13:17:46;;;;;;;22.30;10.63;;;;;;;5.47;84.83;98810.53;5097108;28;20047;-59
2021/12/24 13:22:41;;;;;;;23.25;11.45;;;;;;;5.47;85.05;98805.41;5113299;28;20100;-59
2021/12/24 13:25:11;;;;;;;23.45;10.27;;;;;;;5.49;84.85;98803.72;5113469;28;20495;-59
2021/12/24 13:27:41;;;;;;;17.40;9.50;;;;;;;5.48;84.90;98795.16;5113267;28;20035;-59
2021/12/24 13:30:07;;;;;;;16.83;9.68;;;;;;;5.50;85.21;98800.31;5096617;28;20394;-59
2021/12/24 13:32:57;;;;;;;18.75;10.75;;;;;;;5.52;85.35;98800.38;5096248;28;20494;-59
2021/12/24 13:35:39;;;;;;;19.25;9.90;;;;;;;5.54;85.54;98788.38;5112637;28;20061;-59
2021/12/24 13:38:15;;;;;;;21.08;10.18;;;;;;;5.53;85.16;98794.38;5113124;28;20128;-60
2021/12/24 13:40:44;;;;;;;21.75;10.35;;;;;;;5.53;85.14;98797.81;5131638;28;20032;-60
2021/12/24 13:43:14;;;;;;;24.08;12.18;;;;;;;5.54;85.31;98799.53;5096037;28;20122;-60
2021/12/24 13:45:51;;;;;;;20.15;9.73;;;;;;;5.53;84.92;98805.50;5113255;28;20035;-59
2021/12/24 13:48:24;;;;;;;19.33;9.43;;;;;;;5.53;85.21;98802.09;5131256;28;20506;-59
2021/12/24 13:56:21;;;;;;;20.38;10.73;;;;;;;5.53;84.89;98807.22;5131179;28;20039;-60
2021/12/24 13:58:51;;;;;;;21.48;10.02;;;;;;;5.52;85.20;98811.50;5095826;28;20039;-60
2021/12/24 14:01:21;;;;;;;21.77;10.00;;;;;;;5.53;85.31;98817.50;5095371;28;20027;-59
2021/12/24 14:03:47;;;;;;;20.30;9.98;;;;;;;5.53;85.20;98810.66;5131392;28;20129;-59
2021/12/24 14:06:13;;;;;;;22.88;10.80;;;;;;;5.53;85.32;98812.38;5131034;28;20509;-59
2021/12/24 14:08:39;;;;;;;18.50;10.07;;;;;;;5.54;85.10;98812.38;5130481;28;20047;-59
2021/12/24 14:11:13;;;;;;;23.13;10.40;;;;;;;5.55;85.00;98810.66;5131086;28;20161;-60
2021/12/24 14:13:54;;;;;;;14.43;9.60;;;;;;;5.55;85.27;98813.25;5095309;28;20509;-60
2021/12/24 14:19:15;;;;;;;21.63;10.10;;;;;;;5.55;85.01;98814.13;5112497;28;20439;-59
2021/12/24 14:21:50;;;;;;;22.40;11.05;;;;;;;5.55;85.16;98823.53;5098269;28;20032;-60
2021/12/24 14:24:24;;;;;;;19.40;9.85;;;;;;;5.56;85.38;98827.81;5081616;28;20039;-60